Time;durP1;ratioP1;P1;durP2;ratioP2;P2;SDS_P1;SDS_P2;PMS_P1;PMS_P2;Temp;Humidity;BMP_temperature;BMP_pressure;BME280_temperature;BME280_humidity;BME280_pressure;Samples;Min_cycle;Max_cycle;Signal;HPM_P1;HPM_P2
2022/11/26 00:02:28;;;;;;;1.98;1.70;;;18.50;58.00;;;;;;5107066;27;43461;-61
2022/11/26 00:04:58;;;;;;;4.57;2.17;;;18.40;57.90;;;;;;5110134;27;43885;-61
2022/11/26 00:07:28;;;;;;;2.90;2.00;;;18.40;58.00;;;;;;5109380;27;43539;-61
2022/11/26 00:09:57;;;;;;;2.15;1.90;;;18.40;58.00;;;;;;5108467;27;44725;-61
2022/11/26 00:12:32;;;;;;;3.15;2.25;;;18.40;57.90;;;;;;5107461;27;43731;-61
2022/11/26 00:15:09;;;;;;;3.95;2.10;;;18.40;58.00;;;;;;5111956;27;43477;-61
2022/11/26 00:17:36;;;;;;;2.45;1.83;;;18.40;58.00;;;;;;5108554;27;43593;-61
2022/11/26 00:20:04;;;;;;;2.95;2.15;;;18.30;58.00;;;;;;5101479;27;43882;-61
2022/11/26 00:22:38;;;;;;;3.15;1.92;;;18.30;58.00;;;;;;5108677;27;43498;-61
2022/11/26 00:25:11;;;;;;;3.42;1.88;;;18.30;58.00;;;;;;5109350;27;43467;-61
2022/11/26 00:27:39;;;;;;;3.15;2.20;;;18.30;58.00;;;;;;5107749;27;43357;-61
2022/11/26 00:30:19;;;;;;;3.67;2.20;;;18.30;58.20;;;;;;5108044;27;44784;-61
2022/11/26 00:32:47;;;;;;;4.60;2.20;;;18.30;58.10;;;;;;5105588;27;43399;-61
2022/11/26 00:35:16;;;;;;;3.22;1.92;;;18.30;58.20;;;;;;5107173;27;43978;-61
2022/11/26 00:37:56;;;;;;;2.25;1.85;;;18.30;58.10;;;;;;5108216;27;43383;-61
2022/11/26 00:40:34;;;;;;;3.53;2.27;;;18.30;58.00;;;;;;5108905;27;44690;-61
2022/11/26 00:43:02;;;;;;;2.85;2.00;;;18.20;58.10;;;;;;5108080;27;43420;-61
2022/11/26 00:45:30;;;;;;;3.70;2.38;;;18.20;58.10;;;;;;5107568;27;43572;-61
2022/11/26 00:47:57;;;;;;;3.15;2.20;;;18.20;58.20;;;;;;5107581;27;43383;-61
2022/11/26 00:50:26;;;;;;;2.92;2.00;;;18.20;58.10;;;;;;5110187;27;43902;-61
2022/11/26 00:52:55;;;;;;;2.28;1.70;;;18.20;58.20;;;;;;5104798;27;43510;-61
2022/11/26 00:55:30;;;;;;;2.80;1.75;;;18.20;58.10;;;;;;5106895;27;43489;-61
2022/11/26 00:57:58;;;;;;;2.92;1.75;;;18.20;58.20;;;;;;5107998;27;43444;-61
2022/11/26 01:00:30;;;;;;;3.58;1.90;;;18.20;58.10;;;;;;5108332;27;43789;-61
2022/11/26 01:02:57;;;;;;;3.65;2.00;;;18.20;58.10;;;;;;5107112;27;43729;-61
2022/11/26 01:05:29;;;;;;;2.60;1.90;;;18.20;58.20;;;;;;5104707;27;43445;-61
2022/11/26 01:08:01;;;;;;;2.78;1.70;;;18.10;58.80;;;;;;5110030;27;43533;-61
2022/11/26 01:10:29;;;;;;;3.13;2.30;;;18.10;58.20;;;;;;5106843;27;43853;-61
2022/11/26 01:12:57;;;;;;;2.58;1.95;;;18.10;58.20;;;;;;5107290;27;43908;-61
2022/11/26 01:15:25;;;;;;;2.63;1.90;;;18.10;58.20;;;;;;5106768;27;43443;-61
2022/11/26 01:17:53;;;;;;;2.97;1.98;;;18.10;58.20;;;;;;5110017;27;43421;-61
2022/11/26 01:20:26;;;;;;;3.13;1.92;;;18.00;58.10;;;;;;5107277;27;44740;-61
2022/11/26 01:22:55;;;;;;;3.55;2.00;;;18.00;58.10;;;;;;5106264;27;43702;-61
2022/11/26 01:25:24;;;;;;;2.65;1.80;;;18.00;58.10;;;;;;5106892;27;43373;-61
2022/11/26 01:27:53;;;;;;;3.20;1.85;;;18.00;58.20;;;;;;5104912;27;43492;-61
2022/11/26 01:30:22;;;;;;;1.95;1.73;;;18.00;58.20;;;;;;5106090;27;43780;-61
2022/11/26 01:32:49;;;;;;;3.03;1.92;;;18.00;58.20;;;;;;5106622;27;43450;-61
2022/11/26 01:35:19;;;;;;;3.08;2.15;;;18.00;58.20;;;;;;5085936;27;43440;-61
2022/11/26 01:37:47;;;;;;;2.63;2.00;;;18.00;58.20;;;;;;5108038;27;43486;-61
2022/11/26 01:40:26;;;;;;;2.28;1.75;;;18.00;58.20;;;;;;5106258;27;43909;-61
2022/11/26 01:43:16;;;;;;;2.95;1.90;;;18.00;58.20;;;;;;5103748;27;43429;-61
2022/11/26 01:45:43;;;;;;;3.25;1.92;;;18.00;58.20;;;;;;5104653;27;43474;-61
2022/11/26 01:48:26;;;;;;;2.67;1.75;;;17.90;58.20;;;;;;5106914;27;43481;-61
2022/11/26 01:51:01;;;;;;;2.70;1.90;;;17.90;58.20;;;;;;5101502;27;43810;-61
2022/11/26 01:53:39;;;;;;;2.95;1.83;;;18.00;58.20;;;;;;5104163;27;43421;-60
2022/11/26 01:56:14;;;;;;;2.90;1.73;;;17.90;58.20;;;;;;5107313;27;43512;-61
2022/11/26 01:58:46;;;;;;;3.58;1.90;;;17.90;58.20;;;;;;5106342;27;43356;-61
2022/11/26 02:01:14;;;;;;;3.03;1.75;;;17.90;58.20;;;;;;5091042;27;45329;-61
2022/11/26 02:03:53;;;;;;;1.88;1.50;;;17.90;58.20;;;;;;5106089;27;43373;-61
2022/11/26 02:06:27;;;;;;;3.58;1.70;;;17.90;58.10;;;;;;5105801;27;43417;-61
2022/11/26 02:08:55;;;;;;;2.03;1.70;;;17.90;58.20;;;;;;5109435;27;43481;-61
2022/11/26 02:11:23;;;;;;;2.85;1.83;;;17.90;58.20;;;;;;5106493;27;44763;-61
2022/11/26 02:13:56;;;;;;;2.22;1.70;;;17.90;58.20;;;;;;5105421;27;43991;-61
2022/11/26 02:16:49;;;;;;;2.15;1.58;;;17.90;58.20;;;;;;5106257;27;43402;-61
2022/11/26 02:19:41;;;;;;;2.80;1.70;;;17.90;58.20;;;;;;5105869;27;43486;-61
2022/11/26 02:22:17;;;;;;;2.85;1.88;;;17.90;58.10;;;;;;5103243;27;44154;-61
2022/11/26 02:24:48;;;;;;;2.63;1.67;;;17.90;58.10;;;;;;5108106;27;43501;-61
2022/11/26 02:27:43;;;;;;;1.90;1.48;;;17.90;58.10;;;;;;5105732;27;43400;-61
2022/11/26 02:30:12;;;;;;;2.58;1.80;;;17.80;58.10;;;;;;5103160;27;43488;-61
2022/11/26 02:32:45;;;;;;;3.28;1.80;;;17.80;58.10;;;;;;5108843;27;43795;-61
2022/11/26 02:35:34;;;;;;;2.88;1.90;;;17.80;58.10;;;;;;5105733;27;43461;-61
2022/11/26 02:38:06;;;;;;;2.72;1.73;;;17.80;58.10;;;;;;5103763;27;43383;-61
2022/11/26 02:40:34;;;;;;;3.15;1.80;;;17.80;58.10;;;;;;5108011;27;43588;-61
2022/11/26 02:43:02;;;;;;;2.33;1.50;;;17.80;58.10;;;;;;5106371;27;43789;-61
2022/11/26 02:45:41;;;;;;;3.05;2.00;;;17.80;58.10;;;;;;5105695;27;43503;-61
2022/11/26 02:48:15;;;;;;;2.42;1.60;;;17.80;58.10;;;;;;5085968;27;43503;-61
2022/11/26 02:50:48;;;;;;;3.72;2.10;;;17.80;58.10;;;;;;5106170;27;44041;-61
2022/11/26 02:53:19;;;;;;;2.70;1.70;;;17.80;58.20;;;;;;5100111;27;45051;-61
2022/11/26 02:55:49;;;;;;;;;;;17.80;58.10;;;;;;5104719;27;43389;-61
2022/11/26 02:58:18;;;;;;;3.15;1.90;;;17.80;58.20;;;;;;5108538;27;44036;-61
2022/11/26 03:00:48;;;;;;;2.90;1.80;;;17.70;58.80;;;;;;5105328;27;43612;-61
2022/11/26 03:03:24;;;;;;;1.98;1.60;;;17.80;58.20;;;;;;5105712;27;44515;-61
2022/11/26 03:05:56;;;;;;;2.95;2.00;;;17.70;58.10;;;;;;5107201;27;43488;-61
2022/11/26 03:08:25;;;;;;;2.22;1.70;;;17.70;58.10;;;;;;5105636;27;43414;-61
2022/11/26 03:10:53;;;;;;;3.63;1.80;;;17.70;58.80;;;;;;5105162;27;43438;-61
2022/11/26 03:13:20;;;;;;;3.00;1.73;;;17.70;58.10;;;;;;5105486;27;44742;-61
2022/11/26 03:15:48;;;;;;;2.10;1.70;;;17.70;58.20;;;;;;5107370;27;43429;-61
2022/11/26 03:18:15;;;;;;;1.70;1.50;;;17.70;58.10;;;;;;5109431;27;43517;-61
2022/11/26 03:20:43;;;;;;;3.13;1.92;;;17.70;58.20;;;;;;5108790;27;43465;-61
2022/11/26 03:23:10;;;;;;;2.38;1.67;;;17.70;58.10;;;;;;5104137;27;43794;-61
2022/11/26 03:25:38;;;;;;;1.80;1.70;;;17.70;58.10;;;;;;5106896;27;43657;-61
2022/11/26 03:28:05;;;;;;;2.40;1.75;;;17.70;58.10;;;;;;5105614;27;43434;-61
2022/11/26 03:30:33;;;;;;;2.70;1.70;;;17.70;58.10;;;;;;5104551;27;43583;-61
2022/11/26 03:33:00;;;;;;;1.98;1.50;;;17.70;58.10;;;;;;5105631;27;44978;-61
2022/11/26 03:35:28;;;;;;;1.90;1.60;;;17.60;58.00;;;;;;5106981;27;43875;-61
2022/11/26 03:37:55;;;;;;;2.85;1.90;;;17.60;58.00;;;;;;5105516;27;43501;-61
2022/11/26 03:40:22;;;;;;;2.58;1.63;;;17.60;58.10;;;;;;5104205;27;43440;-61
2022/11/26 03:42:50;;;;;;;3.58;1.90;;;17.60;58.10;;;;;;5104937;27;43788;-61
2022/11/26 03:45:17;;;;;;;2.30;1.50;;;17.70;58.20;;;;;;5106441;27;43385;-61
2022/11/26 03:47:45;;;;;;;2.63;1.70;;;17.60;58.00;;;;;;5087307;27;43794;-61
2022/11/26 03:50:12;;;;;;;3.03;1.67;;;17.60;58.10;;;;;;5104376;27;43443;-61
2022/11/26 03:52:40;;;;;;;2.13;1.70;;;17.60;58.00;;;;;;5104270;27;43766;-61
2022/11/26 03:55:08;;;;;;;1.92;1.70;;;17.60;58.10;;;;;;5106561;27;43501;-60
2022/11/26 03:57:35;;;;;;;2.22;1.60;;;17.60;58.10;;;;;;5104878;27;43387;-61
2022/11/26 04:00:05;;;;;;;3.22;1.80;;;17.60;58.10;;;;;;5104715;27;43636;-61
2022/11/26 04:02:33;;;;;;;1.92;1.60;;;17.60;58.10;;;;;;5105054;27;44082;-61
2022/11/26 04:05:00;;;;;;;2.28;1.67;;;17.60;58.10;;;;;;5106509;27;43801;-61
2022/11/26 04:07:27;;;;;;;2.53;1.77;;;17.60;58.10;;;;;;5112154;27;43452;-61
2022/11/26 04:09:57;;;;;;;3.38;1.90;;;17.60;58.00;;;;;;5105148;27;43489;-61
2022/11/26 04:12:25;;;;;;;2.08;1.48;;;17.60;58.00;;;;;;5103923;27;44708;-61
2022/11/26 04:14:52;;;;;;;3.03;1.80;;;17.50;57.90;;;;;;5107121;27;43833;-61
2022/11/26 04:17:20;;;;;;;1.63;1.35;;;17.50;58.00;;;;;;5105265;27;43548;-61
2022/11/26 04:19:47;;;;;;;2.67;1.70;;;17.60;58.00;;;;;;5104184;27;43415;-61
2022/11/26 04:22:15;;;;;;;2.33;1.55;;;17.50;58.00;;;;;;5104645;27;43871;-61
2022/11/26 04:24:42;;;;;;;3.13;1.65;;;17.50;58.10;;;;;;5106981;27;43729;-61
2022/11/26 04:27:10;;;;;;;2.20;1.50;;;17.50;58.00;;;;;;5104546;27;43397;-61
2022/11/26 04:29:37;;;;;;;3.00;1.63;;;17.50;58.00;;;;;;5102205;27;43426;-61
2022/11/26 04:32:05;;;;;;;2.08;1.60;;;17.50;58.00;;;;;;5104898;27;44762;-61
2022/11/26 04:34:32;;;;;;;2.88;1.60;;;17.50;58.00;;;;;;5106410;27;44238;-61
2022/11/26 04:37:00;;;;;;;2.83;1.70;;;17.50;58.00;;;;;;5105065;27;43478;-61
2022/11/26 04:39:27;;;;;;;2.50;1.63;;;17.50;58.00;;;;;;5103882;27;43603;-60
2022/11/26 04:41:55;;;;;;;2.58;1.83;;;17.50;58.00;;;;;;5104355;27;44061;-61
2022/11/26 04:44:22;;;;;;;1.90;1.65;;;17.50;58.00;;;;;;5104046;27;43524;-61
2022/11/26 04:46:50;;;;;;;2.47;1.60;;;17.50;58.00;;;;;;5097067;27;43436;-61
2022/11/26 04:49:17;;;;;;;3.45;1.65;;;17.50;58.00;;;;;;5107225;27;43592;-60
2022/11/26 04:51:44;;;;;;;3.70;2.05;;;17.50;58.00;;;;;;5108278;27;44782;-61
2022/11/26 04:54:12;;;;;;;2.38;1.52;;;17.50;58.00;;;;;;5106638;27;43416;-61
2022/11/26 04:56:39;;;;;;;2.08;1.38;;;17.50;58.00;;;;;;5108068;27;43422;-61
2022/11/26 04:59:07;;;;;;;2.05;1.60;;;17.50;58.00;;;;;;5107718;27;43657;-61
2022/11/26 05:01:34;;;;;;;1.95;1.45;;;17.50;58.10;;;;;;5106943;27;44050;-61
2022/11/26 05:04:02;;;;;;;1.63;1.52;;;17.50;58.10;;;;;;5110096;27;44073;-61
2022/11/26 05:06:29;;;;;;;2.05;1.67;;;17.40;58.10;;;;;;5107956;27;43436;-61
2022/11/26 05:08:57;;;;;;;3.03;1.98;;;17.40;58.10;;;;;;5107338;27;43596;-61
2022/11/26 05:11:24;;;;;;;3.22;1.80;;;17.40;58.00;;;;;;5107257;27;43675;-61
2022/11/26 05:13:53;;;;;;;2.38;1.65;;;17.40;58.00;;;;;;5109664;27;44079;-61
2022/11/26 05:16:20;;;;;;;2.10;1.58;;;17.40;58.00;;;;;;5107043;27;43372;-61
2022/11/26 05:18:48;;;;;;;2.33;1.90;;;17.50;58.10;;;;;;5097331;27;43467;-61
2022/11/26 05:21:15;;;;;;;2.60;1.48;;;17.40;58.00;;;;;;5106854;27;45002;-61
2022/11/26 05:23:43;;;;;;;2.92;1.88;;;17.50;58.00;;;;;;5108752;27;43665;-61
2022/11/26 05:26:11;;;;;;;2.50;1.40;;;17.40;58.00;;;;;;5107247;27;43444;-61
2022/11/26 05:28:38;;;;;;;2.30;1.60;;;17.50;58.00;;;;;;5106857;27;43439;-61
2022/11/26 05:31:06;;;;;;;1.63;1.20;;;17.50;58.00;;;;;;5106773;27;44103;-61
2022/11/26 05:33:33;;;;;;;2.50;1.50;;;17.50;58.00;;;;;;5109670;27;43462;-61
2022/11/26 05:36:01;;;;;;;2.33;1.67;;;17.50;58.00;;;;;;5106986;27;43927;-61
2022/11/26 05:38:28;;;;;;;2.17;1.50;;;17.40;58.00;;;;;;5106789;27;43504;-61
2022/11/26 05:40:56;;;;;;;2.25;1.52;;;17.50;58.00;;;;;;5106547;27;44092;-61
2022/11/26 05:43:23;;;;;;;2.22;1.67;;;17.40;58.00;;;;;;5109114;27;43451;-61
2022/11/26 05:45:51;;;;;;;3.53;1.80;;;17.40;58.00;;;;;;5107233;27;43400;-61
2022/11/26 05:48:18;;;;;;;2.67;1.70;;;17.40;58.00;;;;;;5107010;27;43478;-61
2022/11/26 05:50:45;;;;;;;2.58;1.58;;;17.40;58.00;;;;;;5106048;27;44072;-61
2022/11/26 05:53:20;;;;;;;2.35;1.50;;;17.40;58.00;;;;;;5103580;27;43835;-60
2022/11/26 05:55:47;;;;;;;2.17;1.50;;;17.50;58.00;;;;;;5107393;27;43411;-61
2022/11/26 05:58:15;;;;;;;2.17;1.60;;;17.40;58.00;;;;;;5103537;27;43530;-61
2022/11/26 06:00:42;;;;;;;2.80;1.60;;;17.40;58.00;;;;;;5106104;27;43783;-61
2022/11/26 06:03:10;;;;;;;2.28;1.52;;;17.40;58.00;;;;;;5107341;27;43544;-61
2022/11/26 06:05:41;;;;;;;2.72;1.55;;;17.40;58.00;;;;;;5106102;27;43510;-61
2022/11/26 06:08:09;;;;;;;2.22;1.70;;;17.50;58.00;;;;;;5106401;27;43448;-61
2022/11/26 06:10:36;;;;;;;2.45;1.40;;;17.50;58.00;;;;;;5103195;27;44975;-61
2022/11/26 06:13:04;;;;;;;2.47;1.67;;;17.50;58.00;;;;;;5097181;27;43637;-61
2022/11/26 06:15:31;;;;;;;1.98;1.38;;;17.50;57.90;;;;;;5106359;27;43471;-61
2022/11/26 06:17:58;;;;;;;2.53;1.67;;;17.50;57.90;;;;;;5105178;27;43540;-61
2022/11/26 06:20:26;;;;;;;2.03;1.58;;;17.50;58.60;;;;;;5100358;27;44109;-61
2022/11/26 06:22:53;;;;;;;2.65;1.58;;;17.50;57.90;;;;;;5104581;27;43477;-61
2022/11/26 06:25:21;;;;;;;1.77;1.60;;;17.50;58.00;;;;;;5101961;27;43384;-60
2022/11/26 06:27:50;;;;;;;2.55;1.60;;;17.50;58.10;;;;;;5103863;27;43363;-60
2022/11/26 06:30:18;;;;;;;2.97;2.00;;;17.50;58.20;;;;;;5095751;27;43886;-60
2022/11/26 06:32:45;;;;;;;2.78;1.63;;;17.50;58.10;;;;;;5103426;27;43443;-61
2022/11/26 06:35:13;;;;;;;2.45;1.70;;;17.50;58.20;;;;;;5100846;27;43517;-60
2022/11/26 06:37:41;;;;;;;2.65;1.60;;;17.50;58.20;;;;;;5102922;27;43517;-61
2022/11/26 06:40:14;;;;;;;1.88;1.63;;;17.50;58.20;;;;;;5092987;27;44956;-61
2022/11/26 06:42:46;;;;;;;2.40;1.50;;;17.50;58.20;;;;;;5102818;27;43563;-60
2022/11/26 06:45:13;;;;;;;1.60;1.30;;;17.50;58.10;;;;;;5104136;27;43565;-60
2022/11/26 06:47:40;;;;;;;2.67;1.55;;;17.60;58.20;;;;;;5099941;27;43975;-60
2022/11/26 06:50:08;;;;;;;2.58;1.70;;;17.50;58.10;;;;;;5094231;27;43976;-61
2022/11/26 06:52:37;;;;;;;2.45;1.77;;;17.50;58.00;;;;;;5099305;27;43541;-61
2022/11/26 06:55:05;;;;;;;2.20;1.70;;;17.50;58.10;;;;;;5102134;27;43395;-61
2022/11/26 06:57:32;;;;;;;2.13;1.50;;;17.60;58.10;;;;;;5099503;27;43436;-60
2022/11/26 06:59:59;;;;;;;2.60;1.80;;;17.60;58.20;;;;;;5101073;27;44969;-60
2022/11/26 07:02:27;;;;;;;2.47;1.80;;;17.60;58.00;;;;;;5103716;27;43414;-60
2022/11/26 07:04:55;;;;;;;2.47;1.60;;;17.60;57.90;;;;;;5082536;27;43497;-60
2022/11/26 07:07:22;;;;;;;3.25;1.67;;;17.60;57.90;;;;;;5097712;27;43487;-60
2022/11/26 07:09:50;;;;;;;1.75;1.50;;;17.70;58.00;;;;;;5107474;27;43983;-60
2022/11/26 07:12:17;;;;;;;2.40;1.63;;;17.70;57.90;;;;;;5102492;27;43679;-60
2022/11/26 07:14:44;;;;;;;2.70;1.33;;;17.70;57.90;;;;;;5099280;27;43355;-60
2022/11/26 07:17:12;;;;;;;2.40;1.70;;;17.70;57.90;;;;;;5097582;27;43621;-60
2022/11/26 07:19:39;;;;;;;2.53;1.67;;;17.70;57.80;;;;;;5107574;27;44834;-60
2022/11/26 07:22:07;;;;;;;1.98;1.50;;;17.70;57.80;;;;;;5082179;27;43430;-60
2022/11/26 07:24:34;;;;;;;2.47;1.50;;;17.80;57.90;;;;;;5098164;27;43460;-61
2022/11/26 07:27:02;;;;;;;5.35;1.67;;;17.80;58.00;;;;;;5097084;27;43477;-61
2022/11/26 07:29:29;;;;;;;4.13;1.70;;;17.80;57.90;;;;;;5105847;27;44718;-61
2022/11/26 07:31:57;;;;;;;3.50;1.73;;;17.80;57.90;;;;;;5101445;27;43503;-61
2022/11/26 07:34:24;;;;;;;2.67;1.50;;;17.90;57.90;;;;;;5097885;27;43365;-60
2022/11/26 07:36:52;;;;;;;2.88;1.67;;;17.90;57.90;;;;;;5104814;27;43894;-61
2022/11/26 07:39:24;;;;;;;4.53;1.80;;;18.00;57.70;;;;;;5105647;27;44751;-61
2022/11/26 07:41:51;;;;;;;2.20;1.80;;;18.00;57.80;;;;;;5099992;27;43730;-61
2022/11/26 07:44:19;;;;;;;2.25;1.67;;;18.10;57.60;;;;;;5096120;27;43540;-61
2022/11/26 07:46:46;;;;;;;3.15;1.80;;;18.20;57.60;;;;;;5105160;27;43374;-62
2022/11/26 07:49:14;;;;;;;2.05;1.50;;;18.30;57.40;;;;;;5100055;27;44885;-61
2022/11/26 07:51:41;;;;;;;2.88;1.80;;;18.40;57.20;;;;;;5099255;27;43826;-61
2022/11/26 07:54:09;;;;;;;4.63;1.88;;;18.50;57.20;;;;;;5096920;27;43502;-61
2022/11/26 07:56:36;;;;;;;2.83;1.83;;;18.70;57.10;;;;;;5103849;27;43431;-61
2022/11/26 07:59:04;;;;;;;2.67;1.80;;;18.90;56.90;;;;;;5103412;27;43803;-61
2022/11/26 08:01:32;;;;;;;3.20;1.80;;;19.00;56.70;;;;;;5082989;27;43661;-61
2022/11/26 08:04:04;;;;;;;3.40;1.83;;;19.10;56.40;;;;;;5097248;27;43526;-61
2022/11/26 08:06:33;;;;;;;2.60;1.83;;;19.30;56.30;;;;;;5115530;27;44197;-60
2022/11/26 08:09:02;;;;;;;1.95;1.55;;;19.40;56.10;;;;;;5103780;27;44798;-62
2022/11/26 08:11:31;;;;;;;2.95;1.52;;;19.50;56.60;;;;;;5103448;27;43750;-60
2022/11/26 08:14:05;;;;;;;3.33;1.70;;;19.60;55.90;;;;;;5102004;27;43465;-60
2022/11/26 08:16:33;;;;;;;2.67;1.75;;;19.70;55.70;;;;;;5105087;27;43495;-60
2022/11/26 08:19:04;;;;;;;1.40;1.30;;;19.80;55.60;;;;;;5103353;27;44682;-60
2022/11/26 08:21:33;;;;;;;2.92;1.88;;;20.00;55.70;;;;;;5103971;27;44046;-60
2022/11/26 08:24:02;;;;;;;2.88;1.52;;;20.10;55.50;;;;;;5104856;27;43448;-60
2022/11/26 08:26:30;;;;;;;4.15;1.65;;;20.20;55.40;;;;;;5104737;27;43531;-60
2022/11/26 08:29:04;;;;;;;2.03;1.80;;;20.30;55.40;;;;;;5104863;27;45140;-60
2022/11/26 08:31:33;;;;;;;1.63;1.52;;;20.40;55.20;;;;;;5103755;27;43511;-60
2022/11/26 08:34:02;;;;;;;2.45;1.67;;;20.50;55.10;;;;;;5103684;27;43480;-61
2022/11/26 08:36:30;;;;;;;2.70;1.77;;;20.60;55.00;;;;;;5108044;27;43988;-60
2022/11/26 08:38:59;;;;;;;3.75;1.70;;;20.70;54.70;;;;;;5106485;27;43887;-60
2022/11/26 08:41:26;;;;;;;2.58;1.83;;;20.80;54.70;;;;;;5104292;27;43457;-60
2022/11/26 08:43:54;;;;;;;3.20;1.67;;;20.90;54.80;;;;;;5105641;27;43553;-60
2022/11/26 08:46:39;;;;;;;2.38;1.45;;;21.00;54.80;;;;;;5104419;27;43560;-60
2022/11/26 08:49:11;;;;;;;2.38;1.60;;;21.10;54.90;;;;;;5105693;27;44077;-60
2022/11/26 08:51:38;;;;;;;2.72;2.00;;;21.10;54.90;;;;;;5104396;27;43951;-60
2022/11/26 08:54:06;;;;;;;2.03;1.50;;;21.20;54.70;;;;;;5104379;27;43422;-60
2022/11/26 08:56:33;;;;;;;2.05;1.52;;;21.20;54.40;;;;;;5104175;27;43576;-60
2022/11/26 08:59:01;;;;;;;3.35;1.90;;;21.30;54.30;;;;;;5106013;27;43865;-60
2022/11/26 09:01:31;;;;;;;4.68;2.40;;;21.30;54.20;;;;;;5102486;27;43704;-60
2022/11/26 09:04:00;;;;;;;3.90;1.90;;;21.30;54.30;;;;;;5107758;27;43516;-62
2022/11/26 09:06:29;;;;;;;3.17;2.10;;;21.30;54.40;;;;;;5103792;27;43429;-62
2022/11/26 09:09:16;;;;;;;4.03;2.20;;;21.30;54.60;;;;;;5101232;27;44064;-63
2022/11/26 09:11:47;;;;;;;3.92;2.10;;;21.40;54.80;;;;;;5107611;27;43994;-63
2022/11/26 09:14:18;;;;;;;5.20;1.90;;;21.50;54.70;;;;;;5102961;27;43398;-62
2022/11/26 09:16:46;;;;;;;7.38;2.67;;;21.50;54.60;;;;;;5104118;27;43400;-62
2022/11/26 09:19:15;;;;;;;3.17;2.00;;;21.60;54.90;;;;;;5104114;27;44064;-62
2022/11/26 09:21:43;;;;;;;3.42;1.65;;;21.70;54.70;;;;;;5105898;27;43960;-62
2022/11/26 09:24:11;;;;;;;3.13;1.90;;;21.70;54.50;;;;;;5104011;27;43486;-61
2022/11/26 09:26:39;;;;;;;6.10;2.00;;;21.80;54.70;;;;;;5106197;27;43894;-61
2022/11/26 09:29:07;;;;;;;2.38;1.42;;;21.90;55.80;;;;;;5105368;27;44663;-62
2022/11/26 09:31:34;;;;;;;3.78;1.80;;;21.80;53.90;;;;;;5109094;27;43961;-62
2022/11/26 09:34:02;;;;;;;4.90;1.80;;;22.10;54.40;;;;;;5103270;27;43486;-62
2022/11/26 09:36:30;;;;;;;6.85;1.90;;;22.20;54.20;;;;;;5086570;27;43556;-61
2022/11/26 09:38:58;;;;;;;4.10;1.80;;;22.30;54.10;;;;;;5103202;27;43892;-61
2022/11/26 09:41:28;;;;;;;5.38;1.80;;;22.30;54.00;;;;;;5108419;27;43824;-61
2022/11/26 09:44:14;;;;;;;3.83;2.13;;;22.40;53.70;;;;;;5102530;27;43954;-61
2022/11/26 09:46:53;;;;;;;3.13;1.90;;;22.50;53.50;;;;;;5103979;27;43352;-62
2022/11/26 09:49:54;;;;;;;2.95;1.40;;;22.60;53.50;;;;;;5087324;27;43744;-61
2022/11/26 09:52:27;;;;;;;3.95;1.60;;;22.60;53.50;;;;;;5104363;27;43992;-61
2022/11/26 09:55:13;;;;;;;3.05;1.65;;;22.70;53.30;;;;;;5099766;27;43454;-61
2022/11/26 09:58:05;;;;;;;2.92;1.63;;;22.70;53.00;;;;;;5106332;27;43409;-61
2022/11/26 10:00:39;;;;;;;5.40;1.88;;;22.70;53.00;;;;;;5103686;27;44684;-61
2022/11/26 10:03:19;;;;;;;2.50;1.70;;;22.70;53.10;;;;;;5102621;27;43509;-61
2022/11/26 10:06:07;;;;;;;5.32;2.15;;;22.70;53.10;;;;;;5098420;27;43548;-61
2022/11/26 10:08:49;;;;;;;3.47;2.20;;;22.70;53.10;;;;;;5107240;27;43398;-61
2022/11/26 10:11:26;;;;;;;5.55;1.85;;;22.70;53.20;;;;;;5105386;27;43884;-60
2022/11/26 10:14:06;;;;;;;3.58;2.10;;;22.70;53.20;;;;;;5100114;27;43469;-60
2022/11/26 10:17:06;;;;;;;5.00;1.98;;;22.60;53.30;;;;;;5105238;27;43503;-61
2022/11/26 10:19:39;;;;;;;5.70;2.63;;;22.60;53.30;;;;;;5074911;27;43636;-61
2022/11/26 10:22:27;;;;;;;5.97;2.47;;;22.60;53.50;;;;;;5098355;27;44649;-61
2022/11/26 10:24:58;;;;;;;6.70;2.83;;;22.60;53.40;;;;;;5086239;27;43434;-61
2022/11/26 10:27:31;;;;;;;5.25;3.33;;;22.60;53.50;;;;;;5106019;27;43379;-61
2022/11/26 10:30:08;;;;;;;8.38;3.55;;;22.60;53.50;;;;;;5102888;27;43456;-61
2022/11/26 10:32:41;;;;;;;8.07;3.53;;;22.60;53.50;;;;;;5094575;27;44750;-60
2022/11/26 10:35:20;;;;;;;10.32;4.03;;;22.60;53.50;;;;;;5105635;27;43457;-61
2022/11/26 10:37:48;;;;;;;11.02;4.38;;;22.60;53.50;;;;;;5103652;27;43461;-61
2022/11/26 10:40:30;;;;;;;12.20;5.10;;;22.60;53.60;;;;;;5098624;27;43660;-61
2022/11/26 10:43:08;;;;;;;12.32;5.18;;;22.60;53.60;;;;;;5096621;27;44984;-61
2022/11/26 10:45:39;;;;;;;7.63;4.20;;;22.50;53.70;;;;;;5101356;27;43976;-61
2022/11/26 10:48:13;;;;;;;;;;;22.50;53.80;;;;;;5103846;27;43373;-61
2022/11/26 10:50:42;;;;;;;9.05;4.13;;;22.50;53.80;;;;;;5102480;27;43494;-61
2022/11/26 10:53:21;;;;;;;10.80;4.35;;;22.40;54.00;;;;;;5102036;27;43885;-60
2022/11/26 10:55:51;;;;;;;9.30;4.70;;;22.40;54.20;;;;;;5100408;27;43541;-60
2022/11/26 10:58:23;;;;;;;9.93;4.35;;;22.40;54.10;;;;;;5102499;27;43514;-61
2022/11/26 11:00:51;;;;;;;8.57;4.35;;;22.40;54.40;;;;;;5102303;27;43490;-60
2022/11/26 11:03:31;;;;;;;8.20;3.78;;;22.30;54.20;;;;;;5102599;27;44028;-60
2022/11/26 11:06:19;;;;;;;11.37;4.80;;;22.30;54.40;;;;;;5098959;27;43519;-61
2022/11/26 11:08:48;;;;;;;9.70;4.03;;;22.30;54.30;;;;;;5104183;27;43462;-60
2022/11/26 11:11:20;;;;;;;8.20;4.25;;;22.20;54.40;;;;;;5101928;27;43502;-60
2022/11/26 11:13:48;;;;;;;7.97;4.40;;;22.20;54.50;;;;;;5099929;27;44087;-60
2022/11/26 11:16:21;;;;;;;7.78;4.50;;;22.10;54.50;;;;;;5100484;27;43480;-60
2022/11/26 11:18:59;;;;;;;9.85;4.13;;;22.10;54.70;;;;;;5098892;27;43505;-60
2022/11/26 11:21:34;;;;;;;10.40;4.28;;;22.10;54.80;;;;;;5100445;27;43489;-60
2022/11/26 11:24:16;;;;;;;9.38;4.55;;;22.00;54.80;;;;;;5081065;27;43759;-61
2022/11/26 11:26:46;;;;;;;10.65;4.30;;;22.00;54.90;;;;;;5100661;27;43497;-60
2022/11/26 11:29:33;;;;;;;8.88;4.15;;;22.00;55.00;;;;;;5102791;27;43419;-60
2022/11/26 11:32:03;;;;;;;7.25;4.07;;;21.90;54.90;;;;;;5115590;27;43438;-60
2022/11/26 11:34:32;;;;;;;8.55;4.20;;;21.90;55.70;;;;;;5098817;27;44041;-60
2022/11/26 11:37:22;;;;;;;7.05;3.95;;;21.90;55.10;;;;;;5102055;27;43504;-60
2022/11/26 11:40:05;;;;;;;9.45;4.05;;;21.90;55.00;;;;;;5100612;27;43459;-60
2022/11/26 11:42:33;;;;;;;7.15;3.95;;;21.90;55.10;;;;;;5101906;27;43515;-60
2022/11/26 11:45:04;;;;;;;10.18;4.47;;;21.80;55.10;;;;;;5098513;27;43947;-60
2022/11/26 11:47:47;;;;;;;8.57;4.00;;;21.80;55.20;;;;;;5098778;27;43444;-60
2022/11/26 11:50:29;;;;;;;7.68;3.65;;;21.80;55.30;;;;;;5098486;27;43390;-61
2022/11/26 11:53:15;;;;;;;7.53;3.72;;;21.70;55.20;;;;;;5098779;27;43449;-61
2022/11/26 11:56:14;;;;;;;9.38;4.43;;;21.70;55.20;;;;;;5074956;27;43782;-60
2022/11/26 11:59:04;;;;;;;7.35;3.72;;;21.70;55.30;;;;;;5101712;27;44118;-60
2022/11/26 12:01:35;;;;;;;7.10;3.95;;;21.60;55.40;;;;;;5106490;27;43484;-60
2022/11/26 12:04:29;;;;;;;7.20;4.03;;;21.60;55.50;;;;;;5098705;27;43580;-60
2022/11/26 12:07:13;;;;;;;5.70;3.50;;;21.60;55.60;;;;;;5105441;27;43884;-60
2022/11/26 12:09:58;;;;;;;4.90;3.05;;;21.60;55.70;;;;;;5102159;27;43513;-60
2022/11/26 12:12:32;;;;;;;6.65;3.70;;;21.60;55.70;;;;;;5104109;27;43410;-60
2022/11/26 12:15:05;;;;;;;5.97;3.10;;;21.50;55.60;;;;;;5102091;27;43513;-60
2022/11/26 12:17:42;;;;;;;6.03;3.47;;;21.50;55.60;;;;;;5087782;27;44639;-61
2022/11/26 12:20:39;;;;;;;8.38;3.72;;;21.50;55.70;;;;;;5101305;27;43437;-60
2022/11/26 12:23:34;;;;;;;8.18;3.83;;;21.50;55.70;;;;;;5096420;27;43520;-60
2022/11/26 12:26:37;;;;;;;5.35;3.40;;;21.50;55.70;;;;;;5106466;27;43659;-60
2022/11/26 12:29:15;;;;;;;7.22;3.40;;;21.50;55.80;;;;;;5094975;27;43617;-60
2022/11/26 12:31:58;;;;;;;5.93;3.17;;;21.40;55.80;;;;;;5102267;27;43518;-60
2022/11/26 12:34:36;;;;;;;6.97;3.60;;;21.40;55.80;;;;;;5104873;27;43514;-60
2022/11/26 12:37:11;;;;;;;5.22;3.00;;;21.40;55.90;;;;;;5105368;27;43919;-60
2022/11/26 12:40:05;;;;;;;5.93;3.33;;;21.40;55.90;;;;;;5099022;27;44040;-60
2022/11/26 12:42:44;;;;;;;6.03;3.20;;;21.40;55.90;;;;;;5101583;27;43729;-60
2022/11/26 12:45:28;;;;;;;5.68;3.10;;;21.40;55.90;;;;;;5105827;27;43532;-60
2022/11/26 12:48:13;;;;;;;5.60;3.17;;;21.30;55.90;;;;;;5102271;27;43403;-60
2022/11/26 12:50:47;;;;;;;5.88;3.58;;;21.30;56.00;;;;;;5103609;27;43807;-60
2022/11/26 12:53:46;;;;;;;5.45;3.45;;;21.30;56.00;;;;;;5103933;27;43470;-60
2022/11/26 12:56:46;;;;;;;5.47;3.10;;;21.30;56.10;;;;;;5075236;27;43659;-60
2022/11/26 12:59:28;;;;;;;5.07;3.20;;;21.20;56.10;;;;;;5102131;27;44170;-60
2022/11/26 13:01:57;;;;;;;4.43;3.00;;;21.20;56.10;;;;;;5106568;27;43748;-61
2022/11/26 13:04:27;;;;;;;5.85;3.25;;;21.20;56.20;;;;;;5107135;27;43951;-61
2022/11/26 13:07:19;;;;;;;5.57;2.92;;;21.10;56.20;;;;;;5104798;27;43485;-61
2022/11/26 13:10:02;;;;;;;5.03;3.22;;;21.10;56.40;;;;;;5100592;27;43645;-60
2022/11/26 13:12:52;;;;;;;5.43;2.90;;;21.00;56.40;;;;;;5103875;27;44036;-60
2022/11/26 13:15:50;;;;;;;6.13;2.90;;;21.00;56.40;;;;;;5074501;27;43489;-60